Time;durP1;ratioP1;P1;durP2;ratioP2;P2;SDS_P1;SDS_P2;PMS_P1;PMS_P2;Temp;Humidity;BMP_temperature;BMP_pressure;BME280_temperature;BME280_humidity;BME280_pressure;Samples;Min_cycle;Max_cycle;Signal;HPM_P1;HPM_P2
2023/04/22 00:00:05;;;;;;;15.17;13.83;;;11.50;99.90;;;;;;5095056;28;20254;-78
2023/04/22 00:02:32;;;;;;;15.10;13.80;;;11.40;99.90;;;;;;5094039;28;20221;-78
2023/04/22 00:05:01;;;;;;;14.17;12.83;;;11.40;99.90;;;;;;5095178;28;20283;-78
2023/04/22 00:07:27;;;;;;;14.20;13.10;;;11.30;99.90;;;;;;5093012;28;20571;-78
2023/04/22 00:09:54;;;;;;;13.60;12.60;;;11.30;99.90;;;;;;5093749;28;20212;-78
2023/04/22 00:12:21;;;;;;;13.30;12.30;;;11.30;99.90;;;;;;5092476;28;20775;-78
2023/04/22 00:14:48;;;;;;;13.33;12.33;;;11.20;99.90;;;;;;5094109;28;20280;-78
2023/04/22 00:17:15;;;;;;;13.23;12.23;;;11.20;99.90;;;;;;5094092;28;20203;-80
2023/04/22 00:19:42;;;;;;;14.07;13.00;;;11.20;99.90;;;;;;5094231;28;20744;-79
2023/04/22 00:22:11;;;;;;;13.93;12.83;;;11.20;99.90;;;;;;5101336;28;20219;-78
2023/04/22 00:24:37;;;;;;;14.37;13.27;;;11.20;99.90;;;;;;5093605;28;20578;-78
2023/04/22 00:27:04;;;;;;;12.97;12.07;;;11.20;99.90;;;;;;5095131;28;20197;-79
2023/04/22 00:29:31;;;;;;;12.70;11.80;;;11.10;99.90;;;;;;5093176;28;20208;-78
2023/04/22 00:31:58;;;;;;;12.70;11.80;;;11.10;99.90;;;;;;5091252;28;20251;-78
2023/04/22 00:34:24;;;;;;;13.30;12.27;;;11.10;99.90;;;;;;5093305;28;20732;-78
2023/04/22 00:36:51;;;;;;;13.30;12.30;;;11.10;99.90;;;;;;5092671;28;20690;-78
2023/04/22 00:39:19;;;;;;;12.93;11.97;;;11.10;99.90;;;;;;5092205;28;20717;-78
2023/04/22 00:41:46;;;;;;;12.20;11.33;;;11.00;99.90;;;;;;5091384;28;20206;-78
2023/04/22 00:44:13;;;;;;;12.97;11.97;;;11.00;99.90;;;;;;5092505;28;20252;-78
2023/04/22 00:46:40;;;;;;;12.97;12.00;;;11.00;99.90;;;;;;5094567;28;20250;-78
2023/04/22 00:49:07;;;;;;;13.23;12.13;;;11.00;99.90;;;;;;5090954;28;20208;-78
2023/04/22 00:51:34;;;;;;;12.27;11.37;;;11.00;99.90;;;;;;5092152;28;20215;-78
2023/04/22 00:54:02;;;;;;;13.30;12.30;;;11.00;99.90;;;;;;5091562;28;20237;-78
2023/04/22 00:56:34;;;;;;;12.60;11.70;;;11.00;99.90;;;;;;5085144;28;20206;-77
2023/04/22 00:59:01;;;;;;;12.90;11.93;;;10.90;99.90;;;;;;5091923;28;20636;-78
2023/04/22 01:01:29;;;;;;;11.90;11.00;;;10.90;99.90;;;;;;5095605;28;20676;-79
2023/04/22 01:03:57;;;;;;;12.70;11.80;;;10.90;99.90;;;;;;5095310;28;20215;-78
2023/04/22 01:06:25;;;;;;;12.40;11.50;;;10.90;99.90;;;;;;5091701;28;20227;-78
2023/04/22 01:08:52;;;;;;;12.20;11.30;;;10.90;99.90;;;;;;5093784;28;20288;-78
2023/04/22 01:11:19;;;;;;;12.57;11.57;;;10.80;99.90;;;;;;5091939;28;20226;-79
2023/04/22 01:13:47;;;;;;;12.00;11.20;;;10.80;99.90;;;;;;5092564;28;20216;-78
2023/04/22 01:16:14;;;;;;;12.00;11.20;;;10.80;99.90;;;;;;5091745;28;20255;-78
2023/04/22 01:18:40;;;;;;;12.17;11.27;;;10.80;99.90;;;;;;5094334;28;20253;-78
2023/04/22 01:21:07;;;;;;;12.30;11.40;;;10.80;99.90;;;;;;5092328;28;20201;-77
2023/04/22 01:23:36;;;;;;;12.93;12.03;;;10.70;99.90;;;;;;5090526;28;20218;-78
2023/04/22 01:26:03;;;;;;;11.90;11.00;;;10.70;99.90;;;;;;5091343;28;20195;-78
2023/04/22 01:28:31;;;;;;;12.00;11.20;;;10.70;99.90;;;;;;5093392;28;20248;-78
2023/04/22 01:30:58;;;;;;;12.00;11.20;;;10.70;99.90;;;;;;5101813;28;20202;-78
2023/04/22 01:33:25;;;;;;;12.67;11.77;;;10.60;99.90;;;;;;5095885;28;20253;-78
2023/04/22 01:35:52;;;;;;;11.87;10.87;;;10.60;99.90;;;;;;5093072;28;20214;-78
2023/04/22 01:38:19;;;;;;;11.97;11.17;;;10.60;99.90;;;;;;5087801;28;20236;-78
2023/04/22 01:40:47;;;;;;;11.70;10.80;;;10.60;99.90;;;;;;5092811;28;20190;-78
2023/04/22 01:43:14;;;;;;;11.27;10.57;;;10.60;99.90;;;;;;5085054;28;20344;-78
2023/04/22 01:45:41;;;;;;;11.17;10.40;;;10.60;99.90;;;;;;5090800;28;20253;-78
2023/04/22 01:48:07;;;;;;;11.57;10.83;;;10.60;99.90;;;;;;5092469;28;20198;-78
2023/04/22 01:50:34;;;;;;;11.70;10.90;;;10.60;99.90;;;;;;5098836;28;20635;-78
2023/04/22 01:53:01;;;;;;;12.40;11.50;;;10.60;99.90;;;;;;5089906;28;20230;-78
2023/04/22 01:55:28;;;;;;;12.80;11.90;;;10.60;99.90;;;;;;5091347;28;20206;-79
2023/04/22 01:57:56;;;;;;;12.63;11.77;;;10.50;99.90;;;;;;5094608;28;20198;-78
2023/04/22 02:00:23;;;;;;;11.77;11.03;;;10.50;99.90;;;;;;5090759;28;20205;-78
2023/04/22 02:02:50;;;;;;;12.00;11.20;;;10.50;99.90;;;;;;5090169;28;20275;-78
2023/04/22 02:05:18;;;;;;;12.33;11.30;;;10.40;99.90;;;;;;5092193;28;20193;-78
2023/04/22 02:07:46;;;;;;;11.83;11.03;;;10.40;99.90;;;;;;5092265;28;20681;-79
2023/04/22 02:10:16;;;;;;;11.93;11.03;;;10.40;99.90;;;;;;5090554;28;20679;-78
2023/04/22 02:12:43;;;;;;;11.30;10.50;;;10.40;99.90;;;;;;5090319;28;20222;-78
2023/04/22 02:15:12;;;;;;;11.50;10.70;;;10.40;99.90;;;;;;5091991;28;20214;-78
2023/04/22 02:17:41;;;;;;;12.00;11.10;;;10.40;99.90;;;;;;5091230;28;20202;-78
2023/04/22 02:20:10;;;;;;;11.53;10.73;;;10.30;99.90;;;;;;5092625;28;20730;-78
2023/04/22 02:22:37;;;;;;;12.43;11.43;;;10.30;99.90;;;;;;5091592;28;20231;-77
2023/04/22 02:25:05;;;;;;;11.97;10.97;;;10.20;99.90;;;;;;5092912;28;20244;-78
2023/04/22 02:27:31;;;;;;;12.00;11.00;;;10.20;99.90;;;;;;5092205;28;20197;-78
2023/04/22 02:29:58;;;;;;;11.17;10.37;;;10.10;99.90;;;;;;5091150;28;20225;-78
2023/04/22 02:32:26;;;;;;;12.07;11.20;;;10.10;99.90;;;;;;5094990;28;20224;-78
2023/04/22 02:34:53;;;;;;;11.73;10.83;;;10.10;99.90;;;;;;5095505;28;20199;-78
2023/04/22 02:37:21;;;;;;;11.90;11.07;;;10.10;99.90;;;;;;5094935;28;20275;-79
2023/04/22 02:39:48;;;;;;;12.37;11.37;;;10.10;99.90;;;;;;5095350;28;20205;-78
2023/04/22 02:42:15;;;;;;;11.27;10.57;;;10.00;99.90;;;;;;5094121;28;20233;-78
2023/04/22 02:44:42;;;;;;;12.03;11.20;;;10.00;99.90;;;;;;5095407;28;20221;-78
2023/04/22 02:47:09;;;;;;;12.47;11.57;;;10.00;99.90;;;;;;5094319;28;20676;-78
2023/04/22 02:49:37;;;;;;;12.07;11.17;;;10.00;99.90;;;;;;5097774;28;20194;-78
2023/04/22 02:52:05;;;;;;;11.30;10.50;;;9.90;99.90;;;;;;5094555;28;20250;-78
2023/04/22 02:54:31;;;;;;;12.37;11.47;;;9.90;99.90;;;;;;5094079;28;20205;-78
2023/04/22 02:56:58;;;;;;;11.67;10.87;;;9.80;99.90;;;;;;5095252;28;20205;-78
2023/04/22 02:59:25;;;;;;;11.90;11.10;;;9.70;99.90;;;;;;5094304;28;20266;-78
2023/04/22 03:01:52;;;;;;;12.17;11.27;;;9.70;99.90;;;;;;5093744;28;20190;-82
2023/04/22 03:04:33;;;;;;;11.87;11.07;;;9.60;99.90;;;;;;5086537;28;20563;-79
2023/04/22 03:07:01;;;;;;;13.10;12.17;;;9.50;99.90;;;;;;5094182;28;20722;-78
2023/04/22 03:09:29;;;;;;;13.10;12.20;;;9.50;99.90;;;;;;5094381;28;20247;-78
2023/04/22 03:11:56;;;;;;;13.17;12.27;;;9.40;99.90;;;;;;5094454;28;20598;-78
2023/04/22 03:14:22;;;;;;;12.27;11.40;;;9.30;99.90;;;;;;5093379;28;20198;-78
2023/04/22 03:16:50;;;;;;;11.40;10.60;;;9.30;99.90;;;;;;5092553;28;20193;-81
2023/04/22 03:19:17;;;;;;;12.40;11.50;;;9.20;99.90;;;;;;5083564;28;20193;-81
2023/04/22 03:21:44;;;;;;;11.93;11.13;;;9.20;99.90;;;;;;5101567;28;20204;-82
2023/04/22 03:24:13;;;;;;;11.20;10.40;;;9.10;99.90;;;;;;5084820;28;20189;-82
2023/04/22 03:26:45;;;;;;;11.70;10.83;;;9.10;99.90;;;;;;5094062;28;20255;-82
2023/04/22 03:29:11;;;;;;;12.90;11.90;;;9.10;99.90;;;;;;5092983;28;20285;-81
2023/04/22 03:31:38;;;;;;;12.00;11.20;;;9.00;99.90;;;;;;5093067;28;20284;-81
2023/04/22 03:34:05;;;;;;;12.53;11.63;;;9.00;99.90;;;;;;5093211;28;20214;-81
2023/04/22 03:36:33;;;;;;;13.20;12.20;;;9.00;99.90;;;;;;5094695;28;20337;-81
2023/04/22 03:38:59;;;;;;;13.20;12.20;;;9.00;99.90;;;;;;5090974;28;20232;-81
2023/04/22 03:41:29;;;;;;;13.43;12.43;;;9.00;99.90;;;;;;5080971;28;20293;-81
2023/04/22 03:43:56;;;;;;;13.47;12.27;;;8.90;99.90;;;;;;5073064;28;20285;-81
2023/04/22 03:46:23;;;;;;;13.90;12.87;;;8.90;99.90;;;;;;5088835;28;20207;-81
2023/04/22 03:48:59;;;;;;;13.57;12.57;;;8.90;99.90;;;;;;5089892;28;20194;-81
2023/04/22 03:51:28;;;;;;;12.77;11.97;;;8.90;99.90;;;;;;5084205;28;20198;-80
2023/04/22 03:53:57;;;;;;;12.43;11.53;;;8.90;99.90;;;;;;5090691;28;20304;-81
2023/04/22 03:56:26;;;;;;;13.47;12.40;;;8.90;99.90;;;;;;5092956;28;20678;-81
2023/04/22 03:58:58;;;;;;;13.57;12.47;;;8.90;99.90;;;;;;5088932;28;20189;-81
2023/04/22 04:01:26;;;;;;;13.00;12.10;;;8.90;99.90;;;;;;5092521;28;20289;-81
2023/04/22 04:03:57;;;;;;;13.27;12.27;;;8.80;99.90;;;;;;5092461;28;20216;-82
2023/04/22 04:06:30;;;;;;;14.00;12.83;;;8.80;99.90;;;;;;5097149;28;20198;-82
2023/04/22 04:08:58;;;;;;;14.30;13.20;;;8.80;99.90;;;;;;5092540;28;20196;-82
2023/04/22 04:11:25;;;;;;;12.97;11.97;;;8.80;99.90;;;;;;5091526;28;20194;-81
2023/04/22 04:13:53;;;;;;;14.27;13.07;;;8.70;99.90;;;;;;5092506;28;20263;-77
2023/04/22 04:16:26;;;;;;;13.40;12.40;;;8.70;99.90;;;;;;5092120;28;20201;-80
2023/04/22 04:19:00;;;;;;;13.77;12.67;;;8.70;99.90;;;;;;5090831;28;20225;-79
2023/04/22 04:21:28;;;;;;;13.90;12.90;;;8.60;99.90;;;;;;5091275;28;20284;-78
2023/04/22 04:23:55;;;;;;;14.60;13.40;;;8.70;99.90;;;;;;5092663;28;20208;-79
2023/04/22 04:26:27;;;;;;;13.70;12.70;;;8.60;99.90;;;;;;5092214;28;20193;-79
2023/04/22 04:29:01;;;;;;;14.10;13.00;;;8.60;99.90;;;;;;5091591;28;20194;-79
2023/04/22 04:31:29;;;;;;;14.17;13.17;;;8.50;99.90;;;;;;5091006;28;20202;-79
2023/04/22 04:33:59;;;;;;;14.03;12.87;;;8.60;99.90;;;;;;5091322;28;20701;-80
2023/04/22 04:36:28;;;;;;;13.17;12.27;;;8.50;99.90;;;;;;5091942;28;20201;-78
2023/04/22 04:38:59;;;;;;;13.17;12.13;;;8.60;99.90;;;;;;5091268;28;20266;-79
2023/04/22 04:41:28;;;;;;;13.87;12.77;;;8.50;99.90;;;;;;5091710;28;20206;-78
2023/04/22 04:43:55;;;;;;;13.47;12.47;;;8.60;99.90;;;;;;5091248;28;20214;-78
2023/04/22 04:46:33;;;;;;;13.43;12.50;;;8.60;99.90;;;;;;5091587;28;20297;-79
2023/04/22 04:49:00;;;;;;;14.07;13.10;;;8.70;99.90;;;;;;5091739;28;20194;-79
2023/04/22 04:51:32;;;;;;;14.27;13.27;;;8.70;99.90;;;;;;5091071;28;20190;-79
2023/04/22 04:54:00;;;;;;;16.40;14.90;;;8.80;99.90;;;;;;5089900;28;20290;-78
2023/04/22 04:56:33;;;;;;;15.70;14.40;;;8.80;99.90;;;;;;5091585;28;20202;-79
2023/04/22 04:59:00;;;;;;;15.70;14.40;;;8.90;99.90;;;;;;5091331;28;20197;-81
2023/04/22 05:01:28;;;;;;;15.43;14.23;;;8.90;99.90;;;;;;5093215;28;20289;-79
2023/04/22 05:04:01;;;;;;;15.33;14.03;;;8.90;99.90;;;;;;5090329;28;20625;-78
2023/04/22 05:06:27;;;;;;;15.27;14.13;;;9.00;99.90;;;;;;5091863;28;20681;-77
2023/04/22 05:09:00;;;;;;;14.80;13.70;;;9.00;99.90;;;;;;5092744;28;20194;-78
2023/04/22 05:11:27;;;;;;;14.97;13.77;;;9.10;99.90;;;;;;5092223;28;20201;-78
2023/04/22 05:13:56;;;;;;;14.57;13.33;;;9.10;99.90;;;;;;5087329;28;20766;-78
2023/04/22 05:16:32;;;;;;;14.57;13.57;;;9.20;99.90;;;;;;5090842;28;20614;-78
2023/04/22 05:19:00;;;;;;;13.67;12.67;;;9.30;99.90;;;;;;5090521;28;20197;-78
2023/04/22 05:21:27;;;;;;;13.20;12.30;;;9.30;99.90;;;;;;5090193;28;20197;-76
2023/04/22 05:23:54;;;;;;;13.27;12.37;;;9.40;99.90;;;;;;5090817;28;20596;-77
2023/04/22 05:26:21;;;;;;;13.43;12.53;;;9.50;99.90;;;;;;5090351;28;20292;-78
2023/04/22 05:28:50;;;;;;;14.20;13.20;;;9.50;99.90;;;;;;5090747;28;20198;-78
2023/04/22 05:31:18;;;;;;;13.13;12.30;;;9.60;99.90;;;;;;5090566;28;20200;-78
2023/04/22 05:33:45;;;;;;;13.17;12.27;;;9.70;99.90;;;;;;5090474;28;20308;-80
2023/04/22 05:36:13;;;;;;;13.60;12.70;;;9.80;99.90;;;;;;5091133;28;20224;-77
2023/04/22 05:38:40;;;;;;;12.50;11.63;;;9.90;99.90;;;;;;5090441;28;20212;-77
2023/04/22 05:41:07;;;;;;;12.57;11.67;;;10.00;99.90;;;;;;5090681;28;20206;-77
2023/04/22 05:43:35;;;;;;;13.00;12.10;;;10.10;99.90;;;;;;5091397;28;20697;-77
2023/04/22 05:46:08;;;;;;;13.53;12.63;;;10.30;99.90;;;;;;5090260;28;20210;-77
2023/04/22 05:48:37;;;;;;;13.30;12.40;;;10.50;99.90;;;;;;5092122;28;20248;-80
2023/04/22 05:51:08;;;;;;;13.87;12.87;;;10.70;99.90;;;;;;5086769;28;20197;-79
2023/04/22 05:53:37;;;;;;;13.90;13.00;;;10.80;99.90;;;;;;5090073;28;20590;-80
2023/04/22 05:56:05;;;;;;;14.00;13.00;;;10.90;99.90;;;;;;5089216;28;20643;-80
2023/04/22 05:58:33;;;;;;;11.17;10.27;;;11.00;99.90;;;;;;5086747;28;20208;-81
2023/04/22 06:01:06;;;;;;;8.70;8.00;;;11.10;99.90;;;;;;5092280;28;20221;-80
2023/04/22 06:03:58;;;;;;;8.60;7.90;;;11.30;99.90;;;;;;5084538;28;20223;-78
2023/04/22 06:06:26;;;;;;;11.27;10.27;;;11.50;99.90;;;;;;5094031;28;20285;-80
2023/04/22 06:08:54;;;;;;;11.50;10.73;;;11.70;99.90;;;;;;5095653;28;20223;-80
2023/04/22 06:11:21;;;;;;;11.40;10.53;;;11.90;99.90;;;;;;5097016;28;20199;-82
2023/04/22 06:13:48;;;;;;;12.80;11.90;;;12.20;99.90;;;;;;5098250;28;20212;-82
2023/04/22 06:16:15;;;;;;;11.97;11.07;;;12.50;99.90;;;;;;5097954;28;20243;-82
2023/04/22 06:18:43;;;;;;;6.80;6.20;;;12.70;99.90;;;;;;5098726;28;20216;-82
2023/04/22 06:21:11;;;;;;;12.90;12.00;;;13.10;99.90;;;;;;5096006;28;20209;-82
2023/04/22 06:23:39;;;;;;;12.30;11.50;;;13.30;99.90;;;;;;5098437;28;20232;-84
2023/04/22 06:26:08;;;;;;;12.37;11.57;;;13.60;99.90;;;;;;5104048;28;20579;-81
2023/04/22 06:28:38;;;;;;;11.23;10.43;;;13.80;99.90;;;;;;5097379;28;20640;-81
2023/04/22 06:31:10;;;;;;;11.57;10.60;;;13.90;99.90;;;;;;5099498;28;20194;-78
2023/04/22 06:33:38;;;;;;;10.97;10.17;;;14.00;99.90;;;;;;5088779;28;20226;-80
2023/04/22 06:36:06;;;;;;;10.40;9.60;;;14.20;99.90;;;;;;5093229;28;20210;-80
2023/04/22 06:38:35;;;;;;;12.43;11.63;;;14.30;99.90;;;;;;5095520;28;20243;-80
2023/04/22 06:41:43;;;;;;;10.20;9.50;;;14.30;99.90;;;;;;5088868;28;20201;-82
2023/04/22 06:44:39;;;;;;;9.20;8.50;;;14.30;99.90;;;;;;5085726;28;20197;-78
2023/04/22 06:47:22;;;;;;;7.77;7.13;;;14.30;99.90;;;;;;5094100;28;20204;-77
2023/04/22 06:49:59;;;;;;;10.73;10.03;;;14.20;99.90;;;;;;5092678;28;20199;-79
2023/04/22 06:52:38;;;;;;;9.03;8.43;;;14.20;99.90;;;;;;5092458;28;20213;-78
2023/04/22 06:55:06;;;;;;;5.57;5.13;;;14.30;99.90;;;;;;5094002;28;20221;-78
2023/04/22 06:57:34;;;;;;;10.90;10.20;;;14.30;99.90;;;;;;5092199;28;20201;-77
2023/04/22 07:00:01;;;;;;;10.70;10.00;;;14.30;99.90;;;;;;5093103;28;20190;-78
2023/04/22 07:02:30;;;;;;;9.70;9.00;;;14.40;99.90;;;;;;5099445;28;20227;-77
2023/04/22 07:04:56;;;;;;;11.17;10.47;;;14.50;99.90;;;;;;5094574;28;20709;-77
2023/04/22 07:07:24;;;;;;;11.77;10.97;;;14.50;99.90;;;;;;5093133;28;20194;-77
2023/04/22 07:09:51;;;;;;;9.77;9.07;;;14.60;99.90;;;;;;5093720;28;20201;-77
2023/04/22 07:12:18;;;;;;;9.70;8.90;;;14.60;99.90;;;;;;5090961;28;20260;-79
2023/04/22 07:14:49;;;;;;;9.77;8.97;;;14.70;99.90;;;;;;5095394;28;20213;-78
2023/04/22 07:17:18;;;;;;;8.00;7.40;;;14.70;99.90;;;;;;5092778;28;20246;-78
2023/04/22 07:19:45;;;;;;;10.37;9.53;;;14.80;99.90;;;;;;5094486;28;20193;-78
2023/04/22 07:22:11;;;;;;;10.40;9.60;;;14.90;99.90;;;;;;5092651;28;20785;-78
2023/04/22 07:24:38;;;;;;;8.93;8.13;;;14.90;99.90;;;;;;5094966;28;20228;-78
2023/04/22 07:27:05;;;;;;;5.60;5.00;;;15.00;99.90;;;;;;5094873;28;20191;-78
2023/04/22 07:29:32;;;;;;;8.73;7.97;;;15.10;99.90;;;;;;5115172;27;20744;-78
2023/04/22 07:32:00;;;;;;;5.43;4.87;;;15.20;99.90;;;;;;5100291;28;20706;-77
2023/04/22 07:34:27;;;;;;;5.33;4.87;;;15.40;99.90;;;;;;5096686;28;20217;-77
2023/04/22 07:36:54;;;;;;;6.60;5.90;;;15.40;99.90;;;;;;5087171;28;20225;-78
2023/04/22 07:39:21;;;;;;;6.00;5.40;;;15.50;99.90;;;;;;5083723;28;20209;-79
2023/04/22 07:41:47;;;;;;;6.67;5.70;;;15.60;99.90;;;;;;5092130;28;20638;-78
2023/04/22 07:44:20;;;;;;;6.10;5.60;;;15.70;99.90;;;;;;5093864;28;20219;-79
2023/04/22 07:46:47;;;;;;;6.37;5.87;;;15.70;99.90;;;;;;5092703;28;20201;-78
2023/04/22 07:49:16;;;;;;;5.80;5.20;;;15.70;99.90;;;;;;5092297;28;20345;-78
2023/04/22 07:51:44;;;;;;;6.00;5.40;;;15.70;99.90;;;;;;5099426;28;20205;-78
2023/04/22 07:54:11;;;;;;;5.77;5.27;;;15.70;99.90;;;;;;5116167;27;20215;-79
2023/04/22 07:56:38;;;;;;;5.70;5.20;;;15.80;99.90;;;;;;5087080;28;20190;-79
2023/04/22 07:59:04;;;;;;;6.10;5.50;;;15.90;99.90;;;;;;5094573;28;20259;-80
2023/04/22 08:01:31;;;;;;;6.87;5.53;;;16.00;99.90;;;;;;5094619;28;20217;-79
2023/04/22 08:03:58;;;;;;;6.37;5.87;;;16.10;99.90;;;;;;5095106;28;20630;-78
2023/04/22 08:06:26;;;;;;;4.83;4.43;;;16.30;99.90;;;;;;5093361;28;20612;-78
2023/04/22 08:08:53;;;;;;;4.70;4.20;;;16.70;99.90;;;;;;5092106;28;20190;-80
2023/04/22 08:11:20;;;;;;;5.00;4.60;;;17.30;99.90;;;;;;5095347;28;20198;-74
2023/04/22 08:13:47;;;;;;;4.17;3.80;;;17.80;99.90;;;;;;5091637;28;20215;-78
2023/04/22 08:16:14;;;;;;;5.30;4.90;;;18.30;99.90;;;;;;5095062;28;20629;-76
2023/04/22 08:18:41;;;;;;;5.53;4.83;;;18.60;99.90;;;;;;5094052;28;20275;-77
2023/04/22 08:21:08;;;;;;;4.73;4.27;;;19.10;99.90;;;;;;5094414;28;20199;-76
2023/04/22 08:23:36;;;;;;;5.73;4.07;;;19.40;99.90;;;;;;5093619;28;20241;-76
2023/04/22 08:26:03;;;;;;;4.40;4.00;;;19.60;99.90;;;;;;5095552;28;20235;-78
2023/04/22 08:28:30;;;;;;;4.80;4.10;;;20.10;99.90;;;;;;5094511;28;20330;-78
2023/04/22 08:30:57;;;;;;;4.43;4.03;;;20.40;99.90;;;;;;5096469;28;20744;-77
2023/04/22 08:33:24;;;;;;;4.70;4.30;;;20.70;99.90;;;;;;5092277;28;20222;-77
2023/04/22 08:35:50;;;;;;;3.87;3.47;;;20.70;99.90;;;;;;5091160;28;20229;-77
2023/04/22 08:38:17;;;;;;;4.33;3.97;;;20.60;99.90;;;;;;5092557;28;20198;-77
2023/04/22 08:40:46;;;;;;;4.07;3.70;;;20.70;99.90;;;;;;5092109;28;20225;-76
2023/04/22 08:43:13;;;;;;;5.33;4.13;;;20.80;99.90;;;;;;5092058;28;20214;-76
2023/04/22 08:45:40;;;;;;;4.67;4.07;;;21.10;99.90;;;;;;5089546;28;20185;-78
2023/04/22 08:48:09;;;;;;;4.20;3.70;;;21.30;99.90;;;;;;5089709;28;20186;-77
2023/04/22 08:50:38;;;;;;;5.90;5.30;;;21.40;99.90;;;;;;5092672;28;20276;-75
2023/04/22 08:53:04;;;;;;;4.50;3.83;;;21.70;99.90;;;;;;5086451;28;20272;-77
2023/04/22 08:55:32;;;;;;;4.03;3.53;;;21.70;99.90;;;;;;5090434;28;20244;-75
2023/04/22 08:58:02;;;;;;;4.23;3.83;;;21.90;99.90;;;;;;5091792;28;20201;-77
2023/04/22 09:00:31;;;;;;;5.37;3.70;;;22.00;99.90;;;;;;5092567;28;20259;-79
2023/04/22 09:03:01;;;;;;;4.23;3.87;;;21.90;99.90;;;;;;5091289;28;20221;-77
2023/04/22 09:05:29;;;;;;;3.70;3.40;;;21.70;99.90;;;;;;5091440;28;20264;-77
2023/04/22 09:07:56;;;;;;;5.03;3.70;;;21.90;99.90;;;;;;5087479;28;20193;-77
2023/04/22 09:10:23;;;;;;;4.30;3.90;;;22.20;99.90;;;;;;5093073;28;20201;-77
2023/04/22 09:12:51;;;;;;;4.03;3.60;;;22.30;99.90;;;;;;5094759;28;20716;-78
2023/04/22 09:15:20;;;;;;;4.67;3.30;;;22.60;99.90;;;;;;5096502;28;20190;-78
2023/04/22 09:17:46;;;;;;;5.43;3.63;;;22.80;99.90;;;;;;5097088;28;20223;-77
2023/04/22 09:20:14;;;;;;;4.43;3.43;;;22.90;99.90;;;;;;5096743;28;20742;-78
2023/04/22 09:22:45;;;;;;;3.50;3.20;;;23.00;99.90;;;;;;5100820;28;20214;-78
2023/04/22 09:25:16;;;;;;;3.40;3.10;;;23.10;99.90;;;;;;5092340;28;20214;-79
2023/04/22 09:27:43;;;;;;;3.60;3.30;;;22.90;99.90;;;;;;5084903;28;20194;-76
2023/04/22 09:30:10;;;;;;;4.30;4.00;;;22.70;99.90;;;;;;5092074;28;20293;-77
2023/04/22 09:32:39;;;;;;;4.57;4.27;;;22.70;99.90;;;;;;5094415;28;20777;-77
2023/04/22 09:35:07;;;;;;;4.33;3.93;;;22.70;99.90;;;;;;5095525;28;20198;-77
2023/04/22 09:37:34;;;;;;;4.43;4.10;;;22.70;99.90;;;;;;5094944;28;20212;-77
2023/04/22 09:40:00;;;;;;;4.73;4.40;;;22.70;99.90;;;;;;5094016;28;20246;-78
2023/04/22 09:42:27;;;;;;;4.87;4.47;;;22.80;99.90;;;;;;5093957;28;20226;-77
2023/04/22 09:44:55;;;;;;;5.43;4.63;;;23.00;99.90;;;;;;5095045;28;20292;-77
2023/04/22 09:47:23;;;;;;;4.53;4.23;;;23.10;99.90;;;;;;5094837;28;20612;-77
2023/04/22 09:49:51;;;;;;;5.27;4.77;;;23.00;99.90;;;;;;5097592;28;20268;-77
2023/04/22 09:52:23;;;;;;;5.03;4.63;;;23.10;99.90;;;;;;5092296;28;20213;-77
2023/04/22 09:54:51;;;;;;;5.03;4.53;;;23.10;99.90;;;;;;5091032;28;20198;-79
2023/04/22 09:57:18;;;;;;;5.63;4.70;;;23.20;99.90;;;;;;5086727;28;20194;-80
2023/04/22 09:59:45;;;;;;;4.77;4.37;;;23.30;99.90;;;;;;5089657;28;20205;-77
2023/04/22 10:02:12;;;;;;;5.00;4.60;;;23.40;99.90;;;;;;5094070;28;20292;-77
2023/04/22 10:04:39;;;;;;;4.80;4.40;;;23.30;99.90;;;;;;5082697;28;20271;-77
2023/04/22 10:07:07;;;;;;;4.37;4.00;;;23.20;99.90;;;;;;5091425;28;20189;-77
2023/04/22 10:09:34;;;;;;;4.10;3.80;;;23.40;99.90;;;;;;5091239;28;20209;-77
2023/04/22 10:12:02;;;;;;;5.47;5.07;;;23.50;99.90;;;;;;5088393;28;20611;-77
2023/04/22 10:14:28;;;;;;;4.60;4.23;;;23.50;99.90;;;;;;5091318;28;20225;-77
2023/04/22 10:16:59;;;;;;;4.70;4.37;;;23.60;99.90;;;;;;5088960;28;20194;-83
2023/04/22 10:19:27;;;;;;;4.40;4.10;;;23.70;99.90;;;;;;5092369;28;20247;-77
2023/04/22 10:21:56;;;;;;;4.10;3.80;;;23.70;99.90;;;;;;5095621;28;20197;-85
2023/04/22 10:24:26;;;;;;;4.23;3.93;;;23.70;99.90;;;;;;5093322;28;20221;-82
2023/04/22 10:26:56;;;;;;;3.90;3.50;;;23.60;99.90;;;;;;5096707;28;20190;-81
2023/04/22 10:29:24;;;;;;;3.43;3.13;;;23.60;99.90;;;;;;5092253;28;20197;-78
2023/04/22 10:31:55;;;;;;;3.03;2.83;;;23.40;99.90;;;;;;5104089;28;20198;-79
2023/04/22 10:34:22;;;;;;;3.30;3.10;;;23.40;99.90;;;;;;5097588;28;20198;-80
2023/04/22 10:36:54;;;;;;;3.10;2.90;;;23.40;99.90;;;;;;5097437;28;20256;-79
2023/04/22 10:39:22;;;;;;;3.50;3.20;;;23.40;99.90;;;;;;5095473;28;20201;-79
2023/04/22 10:41:57;;;;;;;4.13;3.17;;;23.50;99.90;;;;;;5096674;28;20206;-79
2023/04/22 10:44:29;;;;;;;3.27;2.97;;;23.30;99.90;;;;;;5096783;28;20247;-79
2023/04/22 10:46:58;;;;;;;3.33;3.03;;;23.10;99.90;;;;;;5097020;28;20229;-79
2023/04/22 10:49:26;;;;;;;4.10;3.20;;;22.80;99.90;;;;;;5095478;28;20202;-79
2023/04/22 10:51:54;;;;;;;7.33;3.33;;;22.60;99.90;;;;;;5103171;28;20213;-79
2023/04/22 10:55:00;;;;;;;4.17;3.40;;;22.40;99.90;;;;;;5100668;28;20225;-79
2023/04/22 10:57:36;;;;;;;3.50;3.20;;;22.40;99.90;;;;;;5100460;28;20205;-78
2023/04/22 11:00:24;;;;;;;3.40;3.10;;;22.40;99.90;;;;;;5096072;28;20186;-78
2023/04/22 11:03:06;;;;;;;4.40;3.20;;;22.80;99.90;;;;;;5101392;28;20217;-79
2023/04/22 11:05:34;;;;;;;3.27;3.00;;;23.20;99.90;;;;;;5100492;28;20292;-79
2023/04/22 11:08:03;;;;;;;3.60;2.87;;;23.30;99.90;;;;;;5100725;28;20220;-79
2023/04/22 11:10:40;;;;;;;3.77;3.47;;;23.30;99.90;;;;;;5098687;28;20205;-79
2023/04/22 11:13:11;;;;;;;5.20;4.80;;;23.40;99.90;;;;;;5100668;28;20239;-79
2023/04/22 11:15:40;;;;;;;3.83;3.53;;;23.30;99.90;;;;;;5099695;28;20220;-79
2023/04/22 11:18:17;;;;;;;3.13;2.80;;;23.40;99.90;;;;;;5098777;28;20625;-79
2023/04/22 11:20:44;;;;;;;3.10;2.80;;;23.60;99.90;;;;;;5098398;28;20239;-79
2023/04/22 11:23:11;;;;;;;3.10;2.90;;;23.80;99.90;;;;;;5105282;28;20217;-79
2023/04/22 11:25:37;;;;;;;2.87;2.67;;;23.80;99.90;;;;;;5099412;28;20216;-79
2023/04/22 11:28:04;;;;;;;2.40;2.30;;;23.80;99.90;;;;;;5099770;28;20243;-79
2023/04/22 11:30:32;;;;;;;4.00;2.83;;;23.80;99.90;;;;;;5100721;28;20197;-78
2023/04/22 11:33:00;;;;;;;4.07;2.70;;;23.90;99.90;;;;;;5095363;28;20833;-78
2023/04/22 11:35:30;;;;;;;3.10;2.70;;;23.90;99.90;;;;;;5098014;28;20197;-80
2023/04/22 11:37:58;;;;;;;3.03;2.83;;;23.90;99.90;;;;;;5095983;28;20579;-80
2023/04/22 11:40:28;;;;;;;2.83;2.63;;;23.80;99.90;;;;;;5097650;28;20262;-80
2023/04/22 11:42:56;;;;;;;2.63;2.50;;;23.80;99.90;;;;;;5097275;28;20216;-80
2023/04/22 11:45:23;;;;;;;2.93;2.73;;;23.80;99.90;;;;;;5097397;28;20210;-80
2023/04/22 11:47:52;;;;;;;3.20;2.73;;;23.80;99.90;;;;;;5097666;28;20251;-80
2023/04/22 11:50:22;;;;;;;3.30;3.00;;;23.70;99.90;;;;;;5097386;28;20248;-80
2023/04/22 11:52:51;;;;;;;3.10;2.80;;;23.90;99.90;;;;;;5097387;28;20217;-80
2023/04/22 11:55:21;;;;;;;3.10;2.90;;;24.10;98.70;;;;;;5097481;28;20217;-80
2023/04/22 11:57:54;;;;;;;5.00;2.87;;;24.30;99.90;;;;;;5095698;28;20198;-80
2023/04/22 12:00:22;;;;;;;3.43;3.13;;;24.50;99.90;;;;;;5093384;28;20552;-79
2023/04/22 12:02:58;;;;;;;3.30;3.00;;;24.70;99.90;;;;;;5095725;28;20217;-79
2023/04/22 12:05:39;;;;;;;3.57;2.90;;;24.70;99.40;;;;;;5090923;28;20218;-80
2023/04/22 12:08:10;;;;;;;3.00;2.80;;;24.70;99.40;;;;;;5100652;28;20239;-79
2023/04/22 12:10:41;;;;;;;6.63;6.23;;;24.60;99.30;;;;;;5096626;28;20201;-79
2023/04/22 12:13:09;;;;;;;7.80;7.30;;;24.30;99.60;;;;;;5097194;28;20222;-79
2023/04/22 12:15:42;;;;;;;8.20;7.70;;;24.20;99.40;;;;;;5098579;28;20198;-79
2023/04/22 12:18:11;;;;;;;7.67;7.17;;;24.20;99.90;;;;;;5099287;28;20206;-79
2023/04/22 12:20:39;;;;;;;7.60;7.10;;;24.20;99.90;;;;;;5099375;28;20194;-79
2023/04/22 12:23:12;;;;;;;8.10;7.50;;;24.30;99.70;;;;;;5106257;28;20238;-79
2023/04/22 12:25:38;;;;;;;7.93;7.40;;;24.30;99.70;;;;;;5097943;28;20222;-80
2023/04/22 12:28:05;;;;;;;8.07;7.47;;;24.40;99.00;;;;;;5097849;28;20190;-80
2023/04/22 12:30:32;;;;;;;7.90;7.40;;;24.50;98.80;;;;;;5103873;28;20634;-80
2023/04/22 12:32:59;;;;;;;8.40;7.90;;;24.50;97.60;;;;;;5097842;28;20755;-80
2023/04/22 12:35:27;;;;;;;8.00;7.40;;;24.40;97.30;;;;;;5096869;28;20194;-79
2023/04/22 12:37:54;;;;;;;8.03;7.43;;;24.40;98.00;;;;;;5097891;28;20194;-80
2023/04/22 12:40:21;;;;;;;8.90;8.33;;;24.30;98.80;;;;;;5097319;28;20569;-80
2023/04/22 12:42:48;;;;;;;8.43;7.80;;;24.30;99.00;;;;;;5094341;28;20226;-80
2023/04/22 12:45:15;;;;;;;8.17;7.67;;;24.40;98.80;;;;;;5097295;28;20247;-78